• Join FlightAware (Why Join?)
  • Login
  • US Flag 
02:25AM EST


 

Airport Tracker/Info


-or-


 

Live Flight TrackerFlight Track Log ✈ SWA864 ✈ 25-May-2013 ✈ KSAT - KMCO

Flight Track Log - Related Links

Times and Time Zones

All times are in EDT time to prevent confusion due to time zone crossing. See the SWA864 flight status page for this flight to view local times or setup timezone preferences in your user account.

Time Position Orientation Groundspeed Altitude Reporting Facility
EDT Latitude Longitude Course Direction KTS MPH feet Rate Location/Type
04:30PM 29.4942 -98.4050 119° Southeast 213 245 4,100  Level Houston Center
04:30PM 29.5172 -98.3531 63° Northeast 235 270 5,600 2,880 Climbing Houston Center
04:32PM 29.5525 -98.2611 66° East 294 338 9,300 3,060 Climbing Houston Center
04:33PM 29.5892 -98.1683 66° East 325 374 11,900 2,880 Climbing Houston Center
04:34PM 29.6314 -98.0650 65° Northeast 354 407 15,300 3,000 Climbing Houston Center
04:35PM 29.6517 -97.9403 79° East 375 432 18,100 1,980 Climbing Houston Center
04:36PM 29.6544 -97.8153 89° East 388 447 19,400 1,740 Climbing Houston Center
04:37PM 29.6553 -97.6878 90° East 399 459 21,700 2,040 Climbing Houston Center
04:38PM 29.6561 -97.5533 90° East 415 478 23,700 2,040 Climbing Houston Center
04:39PM 29.6569 -97.4133 90° East 435 501 26,000 2,040 Climbing Houston Center
04:40PM 29.6406 -97.2725 98° East 441 507 28,000 1,620 Climbing Houston Center
04:41PM 29.6267 -97.1269 96° East 454 522 29,400 1,200 Climbing Houston Center
04:42PM 29.6114 -96.9731 96° East 475 547 30,600 1,560 Climbing Houston Center
04:43PM 29.5950 -96.8156 97° East 488 562 32,600 2,040 Climbing Houston Center
04:44PM 29.5792 -96.6625 97° East 478 550 34,800 1,740 Climbing Houston Center
04:45PM 29.5625 -96.5142 97° East 468 539 36,300 1,020 Climbing Houston Center
04:46PM 29.5436 -96.3364 97° East 467 537 37,000 840 Climbing Houston Center
04:47PM 29.5272 -96.1850 97° East 476 548 38,100 960 Climbing Houston Center
04:48PM 29.5108 -96.0372 97° East 468 539 39,000 420 Climbing Houston Center
04:49PM 29.4967 -95.9072 97° East 468 539 39,000  Level Houston Center
04:50PM 29.4761 -95.7297 98° East 470 541 39,000  Level Houston Center
04:51PM 29.4606 -95.5822 97° East 470 541 39,000  Level Houston Center
04:52PM 29.4433 -95.4339 98° East 474 545 39,000  Level Houston Center
04:53PM 29.4250 -95.2861 98° East 475 547 39,000  Level Houston Center
04:54PM 29.4081 -95.1378 97° East 478 550 39,000  Level Houston Center
04:55PM 29.3883 -94.9603 97° East 472 543 39,000  Level Houston Center
04:56PM 29.3714 -94.8125 97° East 472 543 39,000  Level Houston Center
04:57PM 29.3542 -94.6650 98° East 471 542 39,000  Level Houston Center
04:58PM 29.3364 -94.5161 98° East 473 544 39,000  Level Houston Center
04:59PM 29.3194 -94.3681 97° East 472 543 39,000  Level Houston Center
05:00PM 29.3003 -94.2175 98° East 476 548 39,000  Level Houston Center
05:01PM 29.2786 -94.0369 98° East 479 551 39,000  Level Houston Center
05:02PM 29.2594 -93.8878 98° East 475 547 39,000  Level Houston Center
05:03PM 29.2419 -93.7481 98° East 476 548 39,000  Level Houston Center
05:04PM 29.2231 -93.5989 98° East 475 547 39,000  Level Houston Center
05:05PM 29.1989 -93.4219 99° East 474 545 39,000  Level Houston Center
05:06PM 29.1803 -93.2739 98° East 473 544 39,000  Level Houston Center
05:07PM 29.1611 -93.1256 98° East 473 544 39,000  Level Houston Center
05:08PM 29.1422 -92.9769 98° East 475 547 39,000  Level Houston Center
05:10PM 29.1217 -92.8278 99° East 477 549 39,000  Level Houston Center
05:11PM 29.1022 -92.6781 98° East 479 551 39,000  Level Houston Center
05:12PM 29.0814 -92.5283 99° East 479 551 39,000  Level Houston Center
05:13PM 29.0564 -92.3478 99° East 481 554 39,000  Level Houston Center
05:14PM 29.0356 -92.1969 99° East 483 556 39,000  Level Houston Center
05:15PM 29.0153 -92.0472 99° East 480 552 39,000  Level Houston Center
05:16PM 28.9936 -91.8975 99° East 480 552 39,000  Level Houston Center
05:17PM 28.9728 -91.7478 99° East 477 549 39,000  Level Houston Center
05:18PM 28.9503 -91.5972 100° East 479 551 39,000  Level Houston Center
05:19PM 28.9294 -91.4467 99° East 482 555 39,000  Level Houston Center
05:20PM 28.9033 -91.2650 99° East 485 558 39,000  Level Houston Center
05:21PM 28.8803 -91.1147 100° East 484 557 39,000  Level Houston Center
05:22PM 28.8589 -90.9633 99° East 485 558 39,000  Level Houston Center
05:23PM 28.8361 -90.8108 100° East 488 562 39,000  Level Houston Center
05:24PM 28.8142 -90.6606 99° East 487 560 39,000  Level Houston Center
05:25PM 28.7911 -90.5103 100° East 485 558 39,000  Level Houston Center
05:26PM 28.7672 -90.3578 100° East 487 560 39,000  Level Houston Center
05:27PM 28.7389 -90.1758 100° East 489 563 39,000  Level Houston Center
05:28PM 28.7153 -90.0242 100° East 488 562 39,000  Level Houston Center
05:29PM 28.6919 -89.8739 100° East 488 562 39,000  Level Houston Center
05:30PM 28.6681 -89.7214 100° East 489 563 39,000  Level Houston Center
05:31PM 28.6433 -89.5694 100° East 490 564 39,000  Level Houston Center
05:32PM 28.6197 -89.4167 100° East 491 565 39,000  Level Houston Center
05:33PM 28.5958 -89.2658 100° East 487 560 39,000  Level Houston Center
05:34PM 28.5658 -89.0842 101° East 486 559 39,000  Level Houston Center
05:35PM 28.5408 -88.9339 101° East 487 560 39,000  Level Houston Center
05:36PM 28.5169 -88.7839 100° East 484 557 39,000  Level Houston Center
05:37PM 28.4914 -88.6342 101° East 483 556 39,000  Level Houston Center
05:38PM 28.4664 -88.4839 101° East 485 558 39,000  Level Houston Center
05:39PM 28.4419 -88.3347 101° East 483 556 39,000  Level Houston Center
05:40PM 28.4158 -88.1864 101° East 480 552 39,000  Level Houston Center
05:41PM 28.3900 -88.0253 100° East 483 556 39,000  Level Houston Center
05:42PM 28.3636 -87.8772 101° East 481 554 39,000  Level Houston Center
05:43PM 28.3386 -87.7283 101° East 482 555 39,000  Level Houston Center
05:44PM 28.3167 -87.5792 99° East 479 551 39,000  Level Houston Center
05:45PM 28.2889 -87.3994 100° East 484 557 39,000  Level Houston Center
05:46PM 28.2658 -87.2503 100° East 481 554 39,000  Level Houston Center
05:47PM 28.2417 -87.1019 100° East 481 554 39,000  Level Houston Center
05:48PM 28.2314 -87.0361 100° East 481 554 39,000  Level Jacksonville Center
05:49PM 28.2089 -86.8917 100° East 474 545 39,000  Level Jacksonville Center
05:50PM 28.1842 -86.7400 100° East 474 545 39,000  Level Jacksonville Center
05:51PM 28.1614 -86.5956 100° East 474 545 39,000  Level Jacksonville Center
05:52PM 28.1364 -86.4464 101° East 474 545 39,000  Level Jacksonville Center
05:53PM 28.1133 -86.2950 100° East 474 545 39,000  Level Jacksonville Center
05:54PM 28.0878 -86.1483 101° East 468 539 39,000  Level Jacksonville Center
05:55PM 28.0625 -85.9947 101° East 473 544 39,000  Level Jacksonville Center
05:56PM 28.0261 -85.7686 100° East 487 560 39,000  Level Miami Center
05:57PM 27.9978 -85.6161 102° East 492 566 39,000  Level Miami Center
05:58PM 27.9753 -85.4736 100° East 481 554 39,000  Level Miami Center
05:59PM 27.9469 -85.3214 102° East 480 552 39,000  Level Miami Center
06:00PM 27.9344 -85.1750 95° East 480 552 39,000  Level Miami Center
06:01PM 27.9289 -85.0222 92° East 475 547 39,000 -300 Level Miami Center
06:02PM 27.9236 -84.8553 92° East 480 552 38,400 -780 Descending Miami Center
06:03PM 27.9172 -84.7044 93° East 480 552 37,500 -960 Descending Miami Center
06:04PM 27.9131 -84.5542 92° East 480 552 36,500 -780 Descending Miami Center
06:05PM 27.9019 -84.4056 95° East 480 552 36,000 -300 Descending Miami Center
06:06PM 27.8975 -84.2528 92° East 480 552 36,000  Level Miami Center
06:07PM 27.8947 -84.1025 91° East 480 552 36,000  Level Miami Center
06:08PM 27.8897 -83.9519 92° East 480 552 36,000 -60 Level Miami Center
06:09PM 27.8825 -83.8036 93° East 480 552 35,900 -2,280 Descending Miami Center
06:10PM 27.8750 -83.6553 93° East 480 552 31,500 -3,900 Descending Miami Center
06:11PM 27.8714 -83.5050 92° East 480 552 28,100 -3,240 Descending Miami Center
06:12PM 27.8633 -83.3661 94° East 466 536 25,100 -2,100 Descending Miami Center
06:13PM 27.8583 -83.2414 93° East 431 496 24,000 -600 Descending Miami Center
06:14PM 27.8511 -83.1214 94° East 406 467 24,000 -60 Level Miami Center
06:15PM 27.8483 -82.9944 91° East 401 461 23,900 -540 Descending Miami Center
06:16PM 27.8428 -82.8792 93° East 401 461 23,000 -960 Descending Miami Center
06:17PM 27.8333 -82.7519 95° East 406 467 22,000 -1,020 Descending Miami Center
06:18PM 27.8322 -82.6275 91° East 406 467 21,000 -1,020 Descending Miami Center
06:19PM 27.8331 -82.5008 90° East 406 467 20,000 -1,020 Descending Miami Center
06:20PM 27.8667 -82.3853 72° East 395 455 19,000 -1,080 Descending Miami Center
06:21PM 27.9089 -82.2675 68° East 385 443 17,900 -1,380 Descending Miami Center
06:24PM 27.9833 -82.0167 71° East 356 410 14,800 -1,500 Descending Orlando TRACON
06:25PM 28.0333 -81.9333 56° Northeast 344 396 13,200 -900 Descending Orlando TRACON
06:26PM 28.0667 -81.8500 66° East 304 350 13,000 -600 Descending Orlando TRACON
06:27PM 28.1167 -81.7667 56° Northeast 294 338 12,100 -1,140 Descending Orlando TRACON
06:28PM 28.1500 -81.6833 66° East 296 341 10,900 -1,560 Descending Orlando TRACON
06:29PM 28.1667 -81.6000 77° East 273 314 9,000 -1,620 Descending Orlando TRACON
06:30PM 28.1833 -81.5167 77° East 253 291 7,600 -1,500 Descending Orlando TRACON
06:31PM 28.2000 -81.4500 74° East 232 267 6,000 -1,620 Descending Orlando TRACON
06:32PM 28.2333 -81.4000 53° Northeast 222 255 4,600 -1,500 Descending Orlando TRACON
06:33PM 28.2833 -81.3500 41° Northeast 218 251 3,200 -1,380 Descending Orlando TRACON
06:33PM 28.3167 -81.3333 24° Northeast 185 213 2,000 -1,200 Descending Orlando TRACON
06:35PM 28.3667 -81.3167 16° North 143 165 900 -840 Descending Orlando TRACON
06:36PM 28.4167 -81.3167 360° North 129 148 200 -660 Descending Orlando TRACON